Time;durP1;ratioP1;P1;durP2;ratioP2;P2;SDS_P1;SDS_P2;PMS_P1;PMS_P2;Temp;Humidity;BMP_temperature;BMP_pressure;BME280_temperature;BME280_humidity;BME280_pressure;Samples;Min_cycle;Max_cycle;Signal;HPM_P1;HPM_P2
2021/07/22 00:01:53;;;;;;;1999.90;999.90;;;;;;;21.16;70.42;101773.44;15632939;28;20487;-65
2021/07/22 00:09:31;;;;;;;1999.90;999.90;;;;;;;21.13;70.98;101775.00;15655359;28;20075;-63
2021/07/22 00:17:26;;;;;;;1999.90;999.90;;;;;;;21.07;71.11;101779.38;15657858;28;20053;-62
2021/07/22 00:33:23;;;;;;;1999.90;999.90;;;;;;;21.00;72.13;101771.53;15670243;28;20037;-62
2021/07/22 00:41:10;;;;;;;1999.90;999.90;;;;;;;20.99;72.62;101763.41;15675461;28;20048;-62
2021/07/22 00:48:47;;;;;;;1999.90;999.90;;;;;;;20.98;72.52;101775.97;15675593;28;20047;-63
2021/07/22 00:56:27;;;;;;;;;;;;;;;21.04;72.21;101769.56;15657813;28;20068;-63
2021/07/22 01:04:05;;;;;;;1999.90;999.90;;;;;;;20.85;72.58;101764.00;15680274;28;19960;-63
2021/07/22 01:11:48;;;;;;;1999.90;999.90;;;;;;;20.66;72.45;101761.22;15651745;28;20033;-62
2021/07/22 01:19:32;;;;;;;1999.90;999.90;;;;;;;20.84;71.95;101764.34;15685545;28;20045;-63
2021/07/22 01:27:11;;;;;;;1999.90;999.90;;;;;;;20.63;72.34;101756.25;15651085;28;20459;-63
2021/07/22 01:34:59;;;;;;;1999.90;999.90;;;;;;;20.72;72.55;101756.84;15645393;28;20060;-63
2021/07/22 01:42:47;;;;;;;1999.90;999.90;;;;;;;20.76;72.89;101754.91;15666455;28;20064;-63
2021/07/22 01:50:25;;;;;;;1999.90;999.90;;;;;;;20.67;73.05;101751.50;15646809;28;20045;-62
2021/07/22 01:58:05;;;;;;;1999.90;999.90;;;;;;;20.67;73.58;101751.50;15665808;28;20583;-62
2021/07/22 02:14:33;;;;;;;1999.90;999.90;;;;;;;20.67;73.73;101755.16;15663883;28;20041;-63
2021/07/22 02:22:28;;;;;;;1999.90;999.90;;;;;;;20.56;74.11;101748.47;15665502;28;20040;-63
2021/07/22 02:30:18;;;;;;;1999.90;999.90;;;;;;;20.56;74.38;101756.97;15663930;28;20133;-63
2021/07/22 02:37:59;;;;;;;1999.90;999.90;;;;;;;20.60;74.32;101762.69;15662964;28;20445;-62
2021/07/22 02:45:54;;;;;;;1999.90;999.90;;;;;;;20.52;74.63;101761.72;15646949;28;20040;-63
2021/07/22 03:01:40;;;;;;;1999.90;999.90;;;;;;;20.51;73.58;101765.78;15644493;28;20053;-63
2021/07/22 03:09:28;;;;;;;1999.90;999.90;;;;;;;20.47;74.79;101770.56;15661762;28;20049;-62
2021/07/22 03:17:22;;;;;;;1999.90;999.90;;;;;;;20.41;75.08;101767.16;15660536;28;20102;-63
2021/07/22 03:25:06;;;;;;;1999.90;999.90;;;;;;;20.34;75.27;101771.91;15679725;28;20033;-63
2021/07/22 03:41:48;;;;;;;1999.90;999.90;;;;;;;20.12;75.16;101765.81;15667319;28;20050;-63
2021/07/22 03:49:40;;;;;;;1999.90;999.90;;;;;;;20.23;74.90;101759.53;15661210;28;20037;-63
2021/07/22 03:57:37;;;;;;;1999.90;999.90;;;;;;;20.08;74.89;101755.56;15659495;28;20079;-63
2021/07/22 04:05:11;;;;;;;1999.90;999.90;;;;;;;20.34;75.12;101755.72;15659595;28;20051;-63
2021/07/22 04:12:49;;;;;;;1999.90;999.90;;;;;;;20.39;75.04;101757.41;15658905;28;20094;-63
2021/07/22 04:29:27;;;;;;;1999.90;999.90;;;;;;;20.51;74.61;101753.63;15661125;28;20438;-63
2021/07/22 04:37:10;;;;;;;;;;;;;;;20.73;73.62;101755.66;15661010;28;20043;-63
2021/07/22 04:44:57;;;;;;;1999.90;999.90;;;;;;;20.92;73.34;101763.28;15654051;28;19920;-63
2021/07/22 04:52:52;;;;;;;1999.90;999.90;;;;;;;21.11;73.08;101766.03;15670834;28;20080;-62
2021/07/22 05:00:46;;;;;;;1999.90;999.90;;;;;;;21.07;72.51;101764.34;15669302;28;20128;-62
2021/07/22 05:08:40;;;;;;;1999.90;999.90;;;;;;;21.08;73.66;101775.31;15669577;28;20814;-63
2021/07/22 05:16:50;;;;;;;1999.90;999.90;;;;;;;21.31;72.29;101772.47;15623552;28;20068;-66
2021/07/22 05:24:54;;;;;;;1999.90;999.90;;;;;;;21.68;70.96;101771.84;15666010;28;20049;-66
2021/07/22 05:33:01;;;;;;;1999.90;999.90;;;;;;;21.93;69.46;101777.84;15650747;28;20140;-66
2021/07/22 05:41:05;;;;;;;1999.90;999.90;;;;;;;21.91;69.84;101769.72;15666015;28;20041;-63
2021/07/22 05:48:51;;;;;;;1999.90;999.90;;;;;;;22.27;67.91;101778.72;15665109;28;20092;-63
2021/07/22 05:56:30;;;;;;;1999.90;999.90;;;;;;;22.40;66.99;101780.06;15684063;28;20537;-62
2021/07/22 06:04:30;;;;;;;1999.90;999.90;;;;;;;22.60;66.13;101784.38;15684685;28;20466;-62
2021/07/22 06:12:23;;;;;;;1999.90;999.90;;;;;;;22.69;66.46;101781.22;15684589;28;20043;-62
2021/07/22 06:20:20;;;;;;;1999.90;999.90;;;;;;;22.83;63.40;101778.53;15681915;28;20048;-63
2021/07/22 06:27:56;;;;;;;1999.90;999.90;;;;;;;23.03;62.33;101785.66;15680874;28;20084;-63
2021/07/22 06:35:35;;;;;;;1999.90;999.90;;;;;;;23.09;63.64;101785.28;15663321;28;20152;-63
2021/07/22 06:43:19;;;;;;;1999.90;999.90;;;;;;;23.23;61.83;101788.25;15680561;28;20037;-63
2021/07/22 06:50:53;;;;;;;1999.90;999.90;;;;;;;23.34;62.73;101786.28;15680089;28;20103;-61
2021/07/22 06:58:51;;;;;;;;;;;;;;;;;;;;;
2021/07/22 07:06:43;;;;;;;1999.90;999.90;;;;;;;23.84;59.74;101786.66;15659181;28;20072;-65
2021/07/22 07:14:18;;;;;;;1999.90;999.90;;;;;;;23.91;60.53;101789.56;15671154;28;20351;-65
2021/07/22 07:21:50;;;;;;;1999.90;999.90;;;;;;;23.86;61.45;101790.78;15673934;28;20394;-61
2021/07/22 07:29:26;;;;;;;1999.90;999.90;;;;;;;24.41;58.27;101792.66;15672466;28;20040;-63
2021/07/22 07:36:59;;;;;;;1999.90;999.90;;;;;;;24.77;58.64;101785.00;15625623;28;20160;-62
2021/07/22 07:44:35;;;;;;;1999.90;999.90;;;;;;;25.69;55.70;101789.91;15657997;28;20401;-64
2021/07/22 07:52:23;;;;;;;1999.90;999.90;;;;;;;26.01;57.48;101789.84;15651920;28;20043;-62
2021/07/22 07:59:57;;;;;;;1999.90;999.90;;;;;;;25.92;53.23;101785.78;15651787;28;20052;-63
2021/07/22 08:07:34;;;;;;;1999.90;999.90;;;;;;;25.98;52.93;101773.53;15675255;28;20121;-64
2021/07/22 08:15:10;;;;;;;1999.90;999.90;;;;;;;25.87;53.99;101772.75;15664656;28;20073;-64
2021/07/22 08:23:06;;;;;;;1999.90;999.90;;;;;;;26.59;51.27;101771.22;15608114;28;20041;-63
2021/07/22 08:38:56;;;;;;;1999.90;999.90;;;;;;;26.83;50.72;101760.81;15681504;28;20072;-63
2021/07/22 08:46:30;;;;;;;1999.90;999.90;;;;;;;26.89;51.63;101747.69;15667466;28;20037;-64
2021/07/22 08:54:14;;;;;;;1999.90;999.90;;;;;;;26.26;51.81;101755.44;15680756;28;20045;-64
2021/07/22 09:02:06;;;;;;;1999.90;999.90;;;;;;;25.10;52.70;101749.56;15650094;28;20037;-62
2021/07/22 09:10:02;;;;;;;;;;;;;;;25.28;54.09;101752.41;15661960;28;20569;-62
2021/07/22 09:17:41;;;;;;;1999.90;999.90;;;;;;;24.81;55.03;101748.72;15603821;28;19921;-63
2021/07/22 09:25:18;;;;;;;1999.90;999.90;;;;;;;25.43;56.51;101753.19;15619461;28;20057;-63
2021/07/22 09:32:56;;;;;;;1999.90;999.90;;;;;;;27.44;48.95;101746.81;15629536;28;20077;-63
2021/07/22 09:40:45;;;;;;;1999.90;999.90;;;;;;;28.57;45.74;101749.56;15678361;28;20049;-63
2021/07/22 09:48:21;;;;;;;1999.90;999.90;;;;;;;28.07;45.09;101735.06;15646078;28;20072;-64
2021/07/22 09:55:55;;;;;;;1999.90;999.90;;;;;;;26.66;49.32;101739.66;15649262;28;20611;-64
2021/07/22 16:08:20;;;;;;;1999.90;999.90;;;;;;;25.78;50.00;101530.19;15664658;28;20040;-63
2021/07/22 20:45:20;;;;;;;1999.90;999.90;;;;;;;23.16;61.78;101455.13;15668723;22;20056;-60
